Miraero Ace — 3FIH4 — position and weather

sailwx.info

Track history (hours):
 
Tides and Currents Weather Stations Pressure Air Temp Water Temp Dewpoint Dewpoint Depression Visibility Wind Speed Wind Dir Waves Ship Positions

Miraero Ace

Last reported at 2016-Oct-15 23:20 UTC. Time now 2016-Dec-11 13:57 UTC.
Position N 35°27' E 018°02'.
Warning: this ship's position is 56 days out of date.

Length 229 m; draft 13.6 m.

Type: Ship. MMSI: 373216000.

Date/timePositionNaut miles runAvg speedWind from/ knotsBaromVisibWave heightAir tempDewpointWater temp
2016-Oct-15 23:20N 35°27' E 018°02'7012.0
2016-Oct-15 17:28N 35°48' E 016°40'1512.0
2016-Oct-15 16:14N 35°53' E 016°22'2011.8
2016-Oct-15 14:33N 35°59' E 015°59'9612.0
2016-Oct-15 06:33N 36°28' E 014°05'2311.6
2016-Oct-15 04:33N 36°35' E 013°38'12112.1
2016-Oct-14 18:33N 37°19' E 011°17'1212.3
2016-Oct-14 17:33N 37°24' E 011°03'  
2016-Oct-12 11:33N 36°19' W 002°40'1212.1
2016-Oct-12 10:33N 36°17' W 002°55'11813.1
2016-Oct-12 01:33N 35°60' W 005°20'24211.0
2016-Oct-11 03:33N 37°48' W 009°50'1312.3
2016-Oct-11 02:31N 38°01' W 009°54'1212.0
2016-Oct-11 01:31N 38°12' W 009°57'2412.2
2016-Oct-10 23:33N 38°36' W 010°04'1212.4
2016-Oct-10 22:33N 38°48' W 010°06'  
2016-Oct-08 17:09N 48°54' W 005°47'711.9
2016-Oct-08 16:32N 48°58' W 005°37'1312.3
2016-Oct-08 15:29N 49°04' W 005°20'7612.2
2016-Oct-08 09:13N 49°42' W 003°38'1911.6
2016-Oct-08 07:33N 49°52' W 003°12'1312.8
2016-Oct-08 06:33N 49°58' W 002°55'10012.1
2016-Oct-07 22:18N 50°25' W 000°25'911.7
2016-Oct-07 21:30N 50°28' W 000°11'6312.4
2016-Oct-07 16:28N 50°55' E 001°19'2010.3
2016-Oct-07 14:33N 51°09' E 001°40'2411.8
2016-Oct-07 12:33N 51°29' E 002°02'3912.5
2016-Oct-07 09:28N 52°01' E 002°36'  
Track history (hours):
 
Tides and Currents Weather Stations Pressure Air Temp Water Temp Dewpoint Dewpoint Depression Visibility Wind Speed Wind Dir Waves Ship Positions

Miraero Ace

Last reported at 2016-Oct-15 23:20 UTC. Time now 2016-Dec-11 13:57 UTC.
Position N 35°27' E 018°02'.
Warning: this ship's position is 56 days out of date.

Length 229 m; draft 13.6 m.

Type: Ship. MMSI: 373216000.

Date/timePositionNaut miles runAvg speedWind from/ knotsBaromVisibWave heightAir tempDewpointWater temp
2016-Oct-15 23:20N 35°27' E 018°02'7012.0
2016-Oct-15 17:28N 35°48' E 016°40'1512.0
2016-Oct-15 16:14N 35°53' E 016°22'2011.8
2016-Oct-15 14:33N 35°59' E 015°59'9612.0
2016-Oct-15 06:33N 36°28' E 014°05'2311.6
2016-Oct-15 04:33N 36°35' E 013°38'12112.1
2016-Oct-14 18:33N 37°19' E 011°17'1212.3
2016-Oct-14 17:33N 37°24' E 011°03'  
2016-Oct-12 11:33N 36°19' W 002°40'1212.1
2016-Oct-12 10:33N 36°17' W 002°55'11813.1
2016-Oct-12 01:33N 35°60' W 005°20'24211.0
2016-Oct-11 03:33N 37°48' W 009°50'1312.3
2016-Oct-11 02:31N 38°01' W 009°54'1212.0
2016-Oct-11 01:31N 38°12' W 009°57'2412.2
2016-Oct-10 23:33N 38°36' W 010°04'1212.4
2016-Oct-10 22:33N 38°48' W 010°06'  
2016-Oct-08 17:09N 48°54' W 005°47'711.9
2016-Oct-08 16:32N 48°58' W 005°37'1312.3
2016-Oct-08 15:29N 49°04' W 005°20'7612.2
2016-Oct-08 09:13N 49°42' W 003°38'1911.6
2016-Oct-08 07:33N 49°52' W 003°12'1312.8
2016-Oct-08 06:33N 49°58' W 002°55'10012.1
2016-Oct-07 22:18N 50°25' W 000°25'911.7
2016-Oct-07 21:30N 50°28' W 000°11'6312.4
2016-Oct-07 16:28N 50°55' E 001°19'2010.3
2016-Oct-07 14:33N 51°09' E 001°40'2411.8
2016-Oct-07 12:33N 51°29' E 002°02'3912.5
2016-Oct-07 09:28N 52°01' E 002°36'  

Dump ship's entire track history